Time;durP1;ratioP1;P1;durP2;ratioP2;P2;SDS_P1;SDS_P2;PMS_P1;PMS_P2;Temp;Humidity;BMP_temperature;BMP_pressure;BME280_temperature;BME280_humidity;BME280_pressure;Samples;Min_cycle;Max_cycle;Signal;HPM_P1;HPM_P2
2023/03/03 00:00:10;;;;;;;108.88;51.97;;;0.80;99.90;;;;;;2084431;28;20147;-74
2023/03/03 00:01:14;;;;;;;112.53;53.47;;;0.80;99.90;;;;;;2080438;28;20067;-74
2023/03/03 00:02:14;;;;;;;115.82;54.97;;;0.80;99.90;;;;;;2085339;28;20044;-74
2023/03/03 00:03:20;;;;;;;110.15;52.83;;;0.90;99.90;;;;;;2073078;28;20064;-74
2023/03/03 00:04:21;;;;;;;115.65;52.35;;;0.90;99.90;;;;;;2071598;28;20049;-73
2023/03/03 00:05:21;;;;;;;122.05;55.83;;;0.90;99.90;;;;;;2080239;28;20494;-72
2023/03/03 00:06:23;;;;;;;122.90;55.55;;;0.90;99.90;;;;;;2078401;28;20271;-73
2023/03/03 00:07:23;;;;;;;112.43;53.58;;;0.90;99.90;;;;;;2078414;28;20036;-76
2023/03/03 00:08:25;;;;;;;115.25;53.53;;;0.80;99.90;;;;;;2077234;28;20044;-77
2023/03/03 00:09:25;;;;;;;108.88;52.92;;;0.90;99.90;;;;;;2080199;28;20036;-77
2023/03/03 00:10:26;;;;;;;109.13;51.40;;;0.80;99.90;;;;;;2096487;28;20025;-77
2023/03/03 00:11:27;;;;;;;112.95;53.53;;;0.80;99.90;;;;;;2081811;28;20708;-76
2023/03/03 00:12:29;;;;;;;111.10;52.67;;;0.80;99.90;;;;;;2078984;28;20029;-76
2023/03/03 00:13:31;;;;;;;119.45;53.78;;;0.90;99.90;;;;;;2087916;28;20036;-77
2023/03/03 00:14:32;;;;;;;113.57;54.00;;;0.80;99.90;;;;;;2089358;28;20075;-76
2023/03/03 00:15:35;;;;;;;116.13;52.15;;;0.90;99.90;;;;;;2081259;28;20339;-76
2023/03/03 00:16:39;;;;;;;114.72;54.63;;;0.90;99.90;;;;;;2084890;28;20025;-76
2023/03/03 00:17:40;;;;;;;110.13;52.22;;;0.80;99.90;;;;;;2095360;28;20058;-78
2023/03/03 00:18:43;;;;;;;110.38;52.38;;;0.80;99.90;;;;;;2095689;28;20078;-78
2023/03/03 00:19:46;;;;;;;109.85;52.67;;;0.80;99.90;;;;;;2099022;28;20132;-78
2023/03/03 00:20:55;;;;;;;113.22;51.33;;;0.80;99.90;;;;;;2102281;28;20032;-79
2023/03/03 00:21:57;;;;;;;107.25;50.92;;;0.80;99.90;;;;;;2102727;28;20040;-78
2023/03/03 00:23:18;;;;;;;110.03;50.15;;;0.80;99.90;;;;;;2097160;28;20045;-77
2023/03/03 00:24:36;;;;;;;114.88;51.42;;;0.80;99.90;;;;;;2094010;28;20024;-77
2023/03/03 00:25:37;;;;;;;110.80;50.75;;;0.70;99.90;;;;;;2081897;28;20109;-77
2023/03/03 00:26:39;;;;;;;105.53;49.47;;;0.80;99.90;;;;;;2077673;28;20948;-77
2023/03/03 00:27:39;;;;;;;110.30;52.28;;;0.80;99.90;;;;;;2078593;28;20459;-77
2023/03/03 00:28:45;;;;;;;115.68;52.95;;;0.80;99.90;;;;;;2078829;28;20025;-77
2023/03/03 00:29:49;;;;;;;115.50;52.38;;;0.80;99.90;;;;;;2078500;28;20036;-77
2023/03/03 00:30:53;;;;;;;113.65;53.40;;;0.90;99.90;;;;;;2078374;28;20028;-76
2023/03/03 00:31:54;;;;;;;114.13;52.72;;;0.80;99.90;;;;;;2081206;28;20075;-77
2023/03/03 00:32:54;;;;;;;114.20;53.40;;;0.90;99.90;;;;;;2079802;28;20158;-77
2023/03/03 00:34:00;;;;;;;115.53;54.55;;;0.90;99.90;;;;;;2078439;28;20040;-77
2023/03/03 00:35:21;;;;;;;111.20;52.88;;;0.90;99.90;;;;;;2084498;28;20455;-77
2023/03/03 00:36:53;;;;;;;110.80;51.38;;;0.90;99.90;;;;;;2088394;28;20124;-77
2023/03/03 00:37:58;;;;;;;112.28;51.15;;;0.90;99.90;;;;;;2069436;28;20045;-76
2023/03/03 00:39:32;;;;;;;105.80;49.00;;;0.90;99.90;;;;;;2078016;28;20064;-77
2023/03/03 00:40:36;;;;;;;108.88;49.60;;;0.90;99.90;;;;;;2079047;28;20025;-77
2023/03/03 00:41:38;;;;;;;115.20;52.45;;;0.90;99.90;;;;;;2080692;28;20064;-77
2023/03/03 00:42:39;;;;;;;133.93;58.92;;;1.00;99.90;;;;;;2083122;28;20119;-76
2023/03/03 00:43:41;;;;;;;122.80;55.65;;;0.90;99.90;;;;;;2088072;28;20025;-77
2023/03/03 00:44:54;;;;;;;122.88;56.28;;;0.90;99.90;;;;;;2085583;28;20033;-76
2023/03/03 00:45:55;;;;;;;135.18;58.45;;;0.90;99.90;;;;;;2084179;28;20067;-77
2023/03/03 00:47:01;;;;;;;133.85;58.95;;;0.90;99.90;;;;;;2077684;28;20026;-76
2023/03/03 00:48:20;;;;;;;127.45;56.95;;;0.90;99.90;;;;;;2081483;28;20036;-76
2023/03/03 00:49:25;;;;;;;137.80;58.17;;;0.90;99.90;;;;;;2088101;28;20567;-76
2023/03/03 00:50:33;;;;;;;130.38;58.65;;;0.90;99.90;;;;;;2092707;28;20095;-77
2023/03/03 00:51:34;;;;;;;131.40;57.80;;;0.90;99.90;;;;;;2077290;28;20036;-78
2023/03/03 00:52:44;;;;;;;128.15;57.33;;;0.90;99.90;;;;;;2076186;28;20760;-78
2023/03/03 00:53:44;;;;;;;117.13;55.15;;;0.90;99.90;;;;;;2075534;28;20213;-77
2023/03/03 00:54:45;;;;;;;124.80;56.75;;;0.90;99.90;;;;;;2077656;28;20034;-77
2023/03/03 00:55:47;;;;;;;117.20;55.15;;;0.90;99.90;;;;;;2071414;28;20030;-77
2023/03/03 00:56:47;;;;;;;119.75;54.08;;;0.90;99.90;;;;;;2075801;28;20093;-77
2023/03/03 00:57:48;;;;;;;123.72;55.97;;;0.90;99.90;;;;;;2079770;28;20518;-78
2023/03/03 00:58:53;;;;;;;118.30;53.72;;;0.90;99.90;;;;;;2095261;28;20024;-78
2023/03/03 00:59:55;;;;;;;112.93;52.20;;;0.90;99.90;;;;;;2086712;28;20415;-76
2023/03/03 01:00:57;;;;;;;115.07;53.22;;;0.90;99.90;;;;;;2079304;28;20032;-77
2023/03/03 01:02:04;;;;;;;140.95;58.80;;;0.80;99.90;;;;;;2083730;28;20021;-77
2023/03/03 01:03:08;;;;;;;130.48;57.05;;;0.80;99.90;;;;;;2085323;28;20517;-76
2023/03/03 01:04:08;;;;;;;117.53;53.53;;;0.80;99.90;;;;;;2089989;28;20028;-77
2023/03/03 01:05:11;;;;;;;123.97;54.38;;;0.80;99.90;;;;;;2069408;28;20477;-77
2023/03/03 01:06:13;;;;;;;123.05;54.15;;;0.80;99.90;;;;;;2081363;28;20035;-77
2023/03/03 01:07:13;;;;;;;115.60;53.67;;;0.70;99.90;;;;;;2086830;28;20119;-78
2023/03/03 01:08:14;;;;;;;120.75;53.97;;;0.70;99.90;;;;;;2085998;28;20025;-78
2023/03/03 01:09:15;;;;;;;129.82;54.70;;;0.70;99.90;;;;;;2077969;28;20091;-75
2023/03/03 01:10:16;;;;;;;122.60;54.85;;;0.70;99.90;;;;;;2066182;28;20073;-78
2023/03/03 01:11:22;;;;;;;117.45;51.30;;;0.70;99.90;;;;;;2079629;28;20025;-77
2023/03/03 01:12:23;;;;;;;118.75;51.60;;;0.70;99.90;;;;;;2078914;28;20028;-77
2023/03/03 01:13:28;;;;;;;124.93;54.22;;;0.60;99.90;;;;;;2081228;28;20025;-78
2023/03/03 01:14:29;;;;;;;118.28;52.47;;;0.60;99.90;;;;;;2088746;28;20054;-76
2023/03/03 01:15:29;;;;;;;133.25;55.92;;;0.60;99.90;;;;;;2093382;28;20451;-77
2023/03/03 01:16:30;;;;;;;145.80;57.50;;;0.60;99.90;;;;;;2083010;28;20021;-77
2023/03/03 01:17:30;;;;;;;136.05;56.08;;;0.60;99.90;;;;;;2078180;28;20048;-77
2023/03/03 01:18:31;;;;;;;129.70;56.30;;;0.50;99.90;;;;;;2080070;28;20133;-77
2023/03/03 01:19:32;;;;;;;126.95;54.30;;;0.50;99.90;;;;;;2071220;28;20083;-76
2023/03/03 01:20:32;;;;;;;123.80;54.53;;;0.50;99.90;;;;;;2086686;28;20139;-77
2023/03/03 01:21:33;;;;;;;125.53;53.65;;;0.40;99.90;;;;;;2095173;28;20118;-77
2023/03/03 01:22:34;;;;;;;118.63;52.47;;;0.40;99.90;;;;;;2078586;28;20131;-77
2023/03/03 01:23:34;;;;;;;118.30;52.58;;;0.40;99.90;;;;;;2087897;28;20102;-77
2023/03/03 01:24:35;;;;;;;119.70;52.85;;;0.40;99.90;;;;;;2085100;28;21492;-78
2023/03/03 01:25:35;;;;;;;123.55;54.15;;;0.40;99.90;;;;;;2077136;28;20025;-78
2023/03/03 01:26:36;;;;;;;114.72;53.28;;;0.40;99.90;;;;;;2085193;28;20492;-78
2023/03/03 01:27:37;;;;;;;120.45;51.90;;;0.40;99.90;;;;;;2096459;28;20048;-76
2023/03/03 01:28:37;;;;;;;120.20;52.63;;;0.40;99.90;;;;;;2078836;28;20105;-76
2023/03/03 01:29:38;;;;;;;117.55;52.70;;;0.30;99.90;;;;;;2090428;28;20024;-77
2023/03/03 01:30:38;;;;;;;110.53;50.88;;;0.40;99.90;;;;;;2082562;28;20526;-77
2023/03/03 01:31:39;;;;;;;119.38;52.67;;;0.30;99.90;;;;;;2078620;28;20040;-76
2023/03/03 01:32:39;;;;;;;113.47;51.47;;;0.40;99.90;;;;;;2080233;28;20124;-77
2023/03/03 01:33:40;;;;;;;117.38;51.60;;;0.40;99.90;;;;;;2077967;28;20514;-77
2023/03/03 01:34:40;;;;;;;116.55;52.00;;;0.40;99.90;;;;;;2077002;28;20049;-76
2023/03/03 01:35:45;;;;;;;111.57;51.15;;;0.40;99.90;;;;;;2085382;28;20025;-76
2023/03/03 01:36:46;;;;;;;123.15;52.65;;;0.40;99.90;;;;;;2087096;28;20507;-77
2023/03/03 01:37:47;;;;;;;122.75;52.20;;;0.40;99.90;;;;;;2078959;28;20116;-77
2023/03/03 01:38:47;;;;;;;110.28;50.20;;;0.40;99.90;;;;;;2077868;28;20032;-76
2023/03/03 01:39:50;;;;;;;117.82;52.80;;;0.40;99.90;;;;;;2076861;28;20502;-78
2023/03/03 01:40:53;;;;;;;108.00;49.63;;;0.40;99.90;;;;;;2094841;28;20028;-79
2023/03/03 01:41:53;;;;;;;129.80;53.72;;;0.40;99.90;;;;;;2087854;28;20025;-77
2023/03/03 01:42:54;;;;;;;115.95;52.10;;;0.30;99.90;;;;;;2088647;28;20034;-78
2023/03/03 01:43:54;;;;;;;122.28;53.38;;;0.30;99.90;;;;;;2088604;28;20033;-77
2023/03/03 01:45:13;;;;;;;115.68;51.97;;;0.30;99.90;;;;;;2085330;28;20411;-76
2023/03/03 01:46:23;;;;;;;114.03;50.88;;;0.30;99.90;;;;;;2074563;28;20070;-76
2023/03/03 01:47:31;;;;;;;115.78;53.10;;;0.30;99.90;;;;;;2079209;28;20143;-77
2023/03/03 01:48:37;;;;;;;114.40;52.47;;;0.30;99.90;;;;;;2084307;28;20029;-77
2023/03/03 01:49:48;;;;;;;122.55;53.10;;;0.30;99.90;;;;;;2081862;28;20049;-77
2023/03/03 01:50:59;;;;;;;111.80;51.53;;;0.20;99.90;;;;;;2081936;28;20031;-77
2023/03/03 01:52:12;;;;;;;121.45;53.22;;;0.20;99.90;;;;;;2077766;28;20037;-77
2023/03/03 01:53:24;;;;;;;114.40;51.85;;;0.20;99.90;;;;;;2093598;28;20035;-77
2023/03/03 01:54:34;;;;;;;112.47;49.85;;;0.20;99.90;;;;;;2083722;28;20098;-77
2023/03/03 01:55:39;;;;;;;113.43;51.33;;;0.20;99.90;;;;;;2079550;28;20439;-77
2023/03/03 01:56:42;;;;;;;116.10;51.67;;;0.20;99.90;;;;;;2079627;28;20036;-77
2023/03/03 01:57:49;;;;;;;107.22;49.25;;;0.20;99.90;;;;;;2087750;28;20050;-78
2023/03/03 01:59:04;;;;;;;110.38;50.67;;;0.20;99.90;;;;;;2093991;28;20076;-78
2023/03/03 02:00:06;;;;;;;116.38;50.97;;;0.20;99.90;;;;;;2079794;28;20090;-76
2023/03/03 02:01:20;;;;;;;110.53;50.40;;;0.20;99.90;;;;;;2079656;28;20381;-77
2023/03/03 02:02:22;;;;;;;119.35;51.92;;;0.20;99.90;;;;;;2075346;28;20470;-77
2023/03/03 02:03:23;;;;;;;113.00;50.30;;;0.10;99.90;;;;;;2077413;28;20086;-77
2023/03/03 02:04:25;;;;;;;119.82;53.60;;;0.10;99.90;;;;;;2077601;28;20029;-77
2023/03/03 02:05:27;;;;;;;117.00;51.80;;;0.10;99.90;;;;;;2078588;28;20029;-77
2023/03/03 02:06:34;;;;;;;114.78;50.95;;;0.10;99.90;;;;;;2078138;28;20029;-78
2023/03/03 02:07:35;;;;;;;116.38;51.67;;;0.10;99.90;;;;;;2081977;28;20032;-77
2023/03/03 02:08:44;;;;;;;108.25;50.55;;;0.10;99.90;;;;;;2078120;28;20039;-78
2023/03/03 02:10:03;;;;;;;103.35;48.42;;;0.10;99.90;;;;;;2089564;28;20418;-78
2023/03/03 02:11:06;;;;;;;100.72;47.25;;;0.10;99.90;;;;;;2084827;28;20115;-77
2023/03/03 02:12:10;;;;;;;110.60;50.25;;;0.10;99.90;;;;;;2092362;28;20024;-77
2023/03/03 02:13:10;;;;;;;105.15;48.42;;;0.10;99.90;;;;;;2097453;28;20020;-77
2023/03/03 02:14:12;;;;;;;102.82;48.30;;;0.00;99.90;;;;;;2077490;28;20366;-78
2023/03/03 02:15:17;;;;;;;111.10;50.58;;;0.00;99.90;;;;;;2083529;28;20021;-78
2023/03/03 02:16:18;;;;;;;116.63;50.17;;;0.00;99.90;;;;;;2079489;28;20036;-76
2023/03/03 02:17:19;;;;;;;113.30;50.58;;;0.00;99.90;;;;;;2090630;28;20598;-78
2023/03/03 02:18:20;;;;;;;104.78;48.47;;;-0.10;99.90;;;;;;2078938;28;20071;-79
2023/03/03 02:19:42;;;;;;;102.43;48.80;;;-0.10;99.90;;;;;;2077948;28;20705;-79
2023/03/03 02:20:58;;;;;;;100.30;46.00;;;-0.10;99.90;;;;;;2073588;28;20826;-78
2023/03/03 02:22:01;;;;;;;98.90;45.55;;;-0.10;99.90;;;;;;2084852;28;20397;-79
2023/03/03 02:24:01;;;;;;;96.28;44.63;;;-0.10;99.90;;;;;;2096164;28;20160;-78
2023/03/03 02:25:06;;;;;;;91.18;42.15;;;-0.10;99.90;;;;;;2067204;28;20465;-78
2023/03/03 02:26:14;;;;;;;100.75;44.88;;;-0.10;99.90;;;;;;2069188;28;20033;-79
2023/03/03 02:27:14;;;;;;;97.50;45.72;;;0.00;99.90;;;;;;2061246;28;20569;-78
2023/03/03 02:28:17;;;;;;;99.57;45.42;;;0.00;99.90;;;;;;2070338;28;20036;-78
2023/03/03 02:29:17;;;;;;;108.18;48.25;;;0.00;99.90;;;;;;2060405;28;20866;-78
2023/03/03 02:30:21;;;;;;;97.75;46.40;;;0.00;99.90;;;;;;2066194;28;20034;-79
2023/03/03 02:31:26;;;;;;;98.70;45.90;;;-0.10;99.90;;;;;;2085910;28;20112;-78
2023/03/03 02:32:27;;;;;;;97.20;44.85;;;-0.10;99.90;;;;;;2081283;28;20032;-77
2023/03/03 02:33:28;;;;;;;94.10;44.00;;;-0.10;99.90;;;;;;2070122;28;20524;-78
2023/03/03 02:34:29;;;;;;;98.82;45.22;;;0.00;99.90;;;;;;2076137;28;20594;-78
2023/03/03 02:35:33;;;;;;;101.60;46.25;;;0.00;99.90;;;;;;2074251;28;20029;-78
2023/03/03 02:36:36;;;;;;;99.45;44.85;;;-0.10;99.90;;;;;;2074750;28;20033;-77
2023/03/03 02:37:37;;;;;;;95.45;44.60;;;-0.10;99.90;;;;;;2074715;28;20068;-78
2023/03/03 02:39:01;;;;;;;97.40;45.70;;;-0.20;99.90;;;;;;2086328;28;20029;-77
2023/03/03 02:40:03;;;;;;;100.43;45.38;;;-0.10;99.90;;;;;;2081629;28;20040;-77
2023/03/03 02:41:25;;;;;;;100.88;46.95;;;-0.10;99.90;;;;;;2082965;28;20061;-78
2023/03/03 02:42:29;;;;;;;103.75;46.42;;;-0.10;99.90;;;;;;2078190;28;20038;-78
2023/03/03 02:43:41;;;;;;;112.55;49.05;;;-0.10;99.90;;;;;;2082647;28;20063;-78
2023/03/03 02:44:42;;;;;;;101.32;47.00;;;-0.10;99.90;;;;;;2080383;28;20598;-78
2023/03/03 02:45:44;;;;;;;110.55;47.88;;;-0.10;99.90;;;;;;2084568;28;20040;-79
2023/03/03 02:46:47;;;;;;;107.05;47.50;;;-0.10;99.90;;;;;;2097041;28;20036;-78
2023/03/03 02:47:50;;;;;;;107.00;47.28;;;-0.10;99.90;;;;;;2081223;28;20029;-78
2023/03/03 02:48:51;;;;;;;112.25;48.58;;;-0.10;99.90;;;;;;2076121;28;20045;-77
2023/03/03 02:49:52;;;;;;;111.97;48.58;;;-0.10;99.90;;;;;;2081932;28;20056;-77
2023/03/03 02:50:53;;;;;;;108.75;47.72;;;-0.10;99.90;;;;;;2084123;28;20033;-78
2023/03/03 02:51:54;;;;;;;105.32;47.80;;;-0.20;99.90;;;;;;2079507;28;20517;-78
2023/03/03 02:52:54;;;;;;;107.95;48.40;;;-0.20;99.90;;;;;;2079111;28;20124;-77
2023/03/03 02:53:56;;;;;;;106.07;48.72;;;-0.30;99.90;;;;;;2087793;28;20029;-76
2023/03/03 02:54:58;;;;;;;106.82;48.65;;;-0.30;99.90;;;;;;2086125;28;20398;-79
2023/03/03 02:55:59;;;;;;;99.15;46.72;;;-0.30;99.90;;;;;;2083582;28;20291;-78
2023/03/03 02:57:00;;;;;;;98.93;46.40;;;-0.20;99.90;;;;;;2079315;28;20275;-78
2023/03/03 02:58:00;;;;;;;95.43;45.20;;;-0.20;99.90;;;;;;2072512;28;20346;-78
2023/03/03 02:59:02;;;;;;;95.15;44.33;;;-0.20;99.90;;;;;;2090073;28;20025;-80
2023/03/03 03:00:06;;;;;;;90.90;41.80;;;-0.20;99.90;;;;;;2089477;28;20025;-79
2023/03/03 03:01:07;;;;;;;91.03;43.22;;;-0.20;99.90;;;;;;2070589;28;20323;-79
2023/03/03 03:02:08;;;;;;;92.45;43.55;;;-0.20;99.90;;;;;;2086075;28;20075;-78
2023/03/03 03:03:09;;;;;;;94.30;44.47;;;-0.20;99.90;;;;;;2100758;28;20441;-77
2023/03/03 03:04:18;;;;;;;96.82;44.10;;;-0.20;99.90;;;;;;2082251;28;20047;-79
2023/03/03 03:05:21;;;;;;;94.35;43.28;;;-0.20;99.90;;;;;;2082338;28;20044;-78
2023/03/03 03:06:22;;;;;;;90.75;42.58;;;-0.20;99.90;;;;;;2073442;28;20568;-78
2023/03/03 03:07:22;;;;;;;91.70;42.10;;;-0.20;99.90;;;;;;2088053;28;20125;-78
2023/03/03 03:08:23;;;;;;;87.68;41.60;;;-0.20;99.90;;;;;;2096266;28;20058;-79
2023/03/03 03:09:24;;;;;;;89.63;42.45;;;-0.20;99.90;;;;;;2063889;28;20098;-78
2023/03/03 03:10:26;;;;;;;88.57;42.60;;;-0.10;99.90;;;;;;2064959;28;20040;-79
2023/03/03 03:11:27;;;;;;;89.95;42.67;;;-0.20;99.90;;;;;;2079283;28;20524;-79
2023/03/03 03:12:28;;;;;;;89.03;41.72;;;-0.10;99.90;;;;;;2084667;28;20031;-79
2023/03/03 03:13:31;;;;;;;96.55;44.50;;;-0.20;99.90;;;;;;2090476;28;20035;-79
2023/03/03 03:14:32;;;;;;;103.07;44.28;;;-0.10;99.90;;;;;;2083933;28;20094;-79
2023/03/03 03:15:34;;;;;;;95.07;45.03;;;-0.10;99.90;;;;;;2080844;28;20573;-78
2023/03/03 03:16:35;;;;;;;100.47;45.00;;;-0.10;99.90;;;;;;2092933;28;22552;-77
2023/03/03 03:17:37;;;;;;;101.50;46.00;;;-0.20;99.90;;;;;;2097123;28;20028;-78
2023/03/03 03:18:39;;;;;;;104.70;46.65;;;-0.20;99.90;;;;;;2072645;28;20033;-78
2023/03/03 03:19:41;;;;;;;99.78;46.08;;;-0.30;99.90;;;;;;2077630;28;20060;-79
2023/03/03 03:20:42;;;;;;;102.88;46.40;;;-0.30;99.90;;;;;;2078533;28;20143;-78
2023/03/03 03:21:43;;;;;;;102.53;46.78;;;-0.30;99.90;;;;;;2075777;28;20032;-79
2023/03/03 03:22:44;;;;;;;100.63;45.75;;;-0.30;99.90;;;;;;2087140;28;20566;-79
2023/03/03 03:23:45;;;;;;;97.47;45.15;;;-0.30;99.90;;;;;;2087170;28;20048;-80
2023/03/03 03:24:46;;;;;;;92.40;42.80;;;-0.30;99.90;;;;;;2077749;28;20029;-80
2023/03/03 03:25:47;;;;;;;97.05;44.33;;;-0.20;99.90;;;;;;2075724;28;20022;-79
2023/03/03 03:26:56;;;;;;;105.43;43.42;;;-0.20;99.90;;;;;;2077682;28;20481;-80
2023/03/03 03:27:57;;;;;;;98.93;43.08;;;-0.30;99.90;;;;;;2058409;28;20034;-79
2023/03/03 03:28:58;;;;;;;98.10;43.15;;;-0.30;99.90;;;;;;2081743;28;20032;-78
2023/03/03 03:29:58;;;;;;;87.18;40.90;;;-0.30;99.90;;;;;;2090204;28;20497;-80
2023/03/03 03:31:00;;;;;;;89.47;42.15;;;-0.30;99.90;;;;;;2078999;28;20404;-80
2023/03/03 03:32:01;;;;;;;87.32;40.67;;;-0.30;99.90;;;;;;2078779;28;20121;-71
2023/03/03 03:33:01;;;;;;;85.97;40.67;;;-0.30;99.90;;;;;;2082492;28;20591;-77
2023/03/03 03:34:02;;;;;;;81.10;39.80;;;-0.30;99.90;;;;;;2095242;28;20154;-82
2023/03/03 03:35:04;;;;;;;85.03;40.92;;;-0.30;99.90;;;;;;2082271;28;20412;-75
2023/03/03 03:36:05;;;;;;;85.95;40.63;;;-0.30;99.90;;;;;;2072518;28;20041;-76
2023/03/03 03:37:08;;;;;;;83.22;40.10;;;-0.30;99.90;;;;;;2088792;28;20035;-76
2023/03/03 03:38:09;;;;;;;85.05;40.38;;;-0.30;99.90;;;;;;2088354;28;20028;-76
2023/03/03 03:39:10;;;;;;;85.20;39.80;;;-0.30;99.90;;;;;;2073374;28;20044;-76
2023/03/03 03:40:15;;;;;;;91.93;41.20;;;-0.30;99.90;;;;;;2071676;28;20059;-76
2023/03/03 03:41:15;;;;;;;88.28;40.95;;;-0.30;99.90;;;;;;2087775;28;20577;-76
2023/03/03 03:42:16;;;;;;;85.45;40.35;;;-0.30;99.90;;;;;;2087558;28;20059;-75
2023/03/03 03:43:17;;;;;;;89.45;40.15;;;-0.30;99.90;;;;;;2079160;28;20025;-75
2023/03/03 03:44:18;;;;;;;90.30;41.35;;;-0.30;99.90;;;;;;2079017;28;20083;-75
2023/03/03 03:45:19;;;;;;;87.50;40.30;;;-0.30;99.90;;;;;;2079067;28;20117;-75
2023/03/03 03:46:20;;;;;;;86.68;40.10;;;-0.30;99.90;;;;;;2082217;28;20875;-76
2023/03/03 03:47:21;;;;;;;84.93;40.30;;;-0.30;99.90;;;;;;2080612;28;20465;-76
2023/03/03 03:48:21;;;;;;;80.07;38.70;;;-0.30;99.90;;;;;;2080935;28;20036;-76
2023/03/03 03:49:23;;;;;;;82.28;38.40;;;-0.30;99.90;;;;;;2080566;28;20079;-76
2023/03/03 03:50:25;;;;;;;87.25;41.08;;;-0.30;99.90;;;;;;2066905;28;20028;-77
2023/03/03 03:51:26;;;;;;;94.15;42.35;;;-0.30;99.90;;;;;;2086416;28;20025;-75
2023/03/03 03:52:27;;;;;;;84.95;40.17;;;-0.30;99.90;;;;;;2086543;28;20025;-75
2023/03/03 03:53:27;;;;;;;89.10;41.60;;;-0.30;99.90;;;;;;2078011;28;20033;-76
2023/03/03 03:54:28;;;;;;;86.20;39.95;;;-0.30;99.90;;;;;;2080311;28;20492;-76
2023/03/03 03:55:28;;;;;;;85.93;40.50;;;-0.30;99.90;;;;;;2079136;28;20036;-76
2023/03/03 03:56:29;;;;;;;91.90;41.85;;;-0.30;99.90;;;;;;2090009;28;20451;-74
2023/03/03 03:57:32;;;;;;;93.93;41.45;;;-0.40;99.90;;;;;;2085688;28;20095;-75
2023/03/03 03:58:33;;;;;;;93.40;42.45;;;-0.40;99.90;;;;;;2080516;28;20079;-76
2023/03/03 03:59:37;;;;;;;93.38;42.53;;;-0.40;99.90;;;;;;2071433;28;20037;-76
2023/03/03 04:00:40;;;;;;;93.10;41.72;;;-0.40;99.90;;;;;;2070171;28;20048;-75
2023/03/03 04:01:41;;;;;;;90.20;40.30;;;-0.40;99.90;;;;;;2077792;28;20017;-75
2023/03/03 04:02:42;;;;;;;99.03;42.75;;;-0.30;99.90;;;;;;2077845;28;20439;-75
2023/03/03 04:03:47;;;;;;;91.90;41.47;;;-0.40;99.90;;;;;;2077883;28;20503;-76
2023/03/03 04:04:51;;;;;;;86.57;40.15;;;-0.40;99.90;;;;;;2086409;28;20252;-76
2023/03/03 04:05:54;;;;;;;82.00;37.90;;;-0.30;99.90;;;;;;2083914;28;20087;-76
2023/03/03 04:06:54;;;;;;;82.35;38.03;;;-0.30;99.90;;;;;;2082463;28;20025;-76
2023/03/03 04:07:55;;;;;;;84.25;39.63;;;-0.30;99.90;;;;;;2083344;28;20033;-75
2023/03/03 04:08:56;;;;;;;83.45;38.08;;;-0.30;99.90;;;;;;2070595;28;20029;-75
2023/03/03 04:09:58;;;;;;;79.70;37.45;;;-0.30;99.90;;;;;;2081683;28;20028;-76
2023/03/03 04:10:58;;;;;;;81.65;37.65;;;-0.30;99.90;;;;;;2095738;28;20024;-76
2023/03/03 04:12:00;;;;;;;81.85;38.72;;;-0.30;99.90;;;;;;2077489;28;20030;-75
2023/03/03 04:13:01;;;;;;;84.63;38.17;;;-0.30;99.90;;;;;;2085727;28;20074;-76
2023/03/03 04:14:01;;;;;;;82.55;38.85;;;-0.30;99.90;;;;;;2096548;28;20047;-75
2023/03/03 04:15:05;;;;;;;86.63;40.00;;;-0.40;99.90;;;;;;2081175;28;20029;-75
2023/03/03 04:16:06;;;;;;;83.28;37.97;;;-0.40;99.90;;;;;;2087331;28;20044;-75
2023/03/03 04:17:18;;;;;;;81.22;38.10;;;-0.40;99.90;;;;;;2094698;28;20024;-75
2023/03/03 04:18:18;;;;;;;80.10;36.92;;;-0.30;99.90;;;;;;2079106;28;20021;-75
2023/03/03 04:19:20;;;;;;;77.72;36.88;;;-0.30;99.90;;;;;;2083387;28;20025;-75
2023/03/03 04:20:23;;;;;;;80.47;37.60;;;-0.30;99.90;;;;;;2077645;28;20025;-75
2023/03/03 04:21:24;;;;;;;79.03;37.42;;;-0.30;99.90;;;;;;2076051;28;20025;-75
2023/03/03 04:22:26;;;;;;;79.38;37.35;;;-0.30;99.90;;;;;;2077491;28;20029;-75
2023/03/03 04:23:28;;;;;;;80.63;37.42;;;-0.30;99.90;;;;;;2085431;28;20059;-76
2023/03/03 04:24:28;;;;;;;78.20;36.38;;;-0.30;99.90;;;;;;2077341;28;20524;-75
2023/03/03 04:25:29;;;;;;;79.18;37.78;;;-0.40;99.90;;;;;;2080197;28;20033;-75
2023/03/03 04:26:30;;;;;;;78.10;36.90;;;-0.40;99.90;;;;;;2093397;28;20451;-75
2023/03/03 04:27:35;;;;;;;80.68;37.33;;;-0.40;99.90;;;;;;2081993;28;20499;-75
2023/03/03 04:28:36;;;;;;;78.28;36.22;;;-0.40;99.90;;;;;;2058597;28;20113;-75
2023/03/03 04:29:37;;;;;;;81.13;37.63;;;-0.40;99.90;;;;;;2075086;28;20497;-75
2023/03/03 04:30:37;;;;;;;78.82;37.45;;;-0.40;99.90;;;;;;2095520;28;20125;-76
2023/03/03 04:31:38;;;;;;;82.85;38.42;;;-0.40;99.90;;;;;;2080575;28;20504;-76
2023/03/03 04:32:42;;;;;;;82.90;38.60;;;-0.50;99.90;;;;;;2087775;28;20028;-75
2023/03/03 04:33:45;;;;;;;76.38;35.50;;;-0.40;99.90;;;;;;2086214;28;20551;-76
2023/03/03 04:34:45;;;;;;;80.03;36.88;;;-0.40;99.90;;;;;;2077319;28;20052;-76
2023/03/03 04:35:46;;;;;;;72.63;34.70;;;-0.40;99.90;;;;;;2085691;28;20045;-74
2023/03/03 04:36:46;;;;;;;80.53;36.50;;;-0.40;99.90;;;;;;2097060;28;20111;-74
2023/03/03 04:37:47;;;;;;;77.43;36.35;;;-0.40;99.90;;;;;;2071179;28;20152;-75
2023/03/03 04:38:49;;;;;;;81.13;37.97;;;-0.40;99.90;;;;;;2078938;28;20044;-75
2023/03/03 04:39:49;;;;;;;78.07;36.70;;;-0.30;99.90;;;;;;2087189;28;20103;-75
2023/03/03 04:40:50;;;;;;;85.05;38.67;;;-0.30;99.90;;;;;;2079571;28;20436;-75
2023/03/03 04:41:52;;;;;;;81.78;37.25;;;-0.30;99.90;;;;;;2085758;28;20512;-75
2023/03/03 04:42:53;;;;;;;82.95;37.00;;;-0.30;99.90;;;;;;2078117;28;20065;-75
2023/03/03 04:43:53;;;;;;;82.60;38.80;;;-0.30;99.90;;;;;;2090246;28;20024;-75
2023/03/03 04:44:54;;;;;;;80.38;37.65;;;-0.30;99.90;;;;;;2093524;28;20039;-75
2023/03/03 04:45:55;;;;;;;80.93;36.92;;;-0.30;99.90;;;;;;2080208;28;20033;-75
2023/03/03 04:46:56;;;;;;;77.65;35.30;;;-0.30;99.90;;;;;;2068165;28;20449;-75
2023/03/03 04:47:57;;;;;;;80.00;36.88;;;-0.30;99.90;;;;;;2070765;28;20033;-75
2023/03/03 04:48:57;;;;;;;78.32;35.92;;;-0.30;99.90;;;;;;2078978;28;20029;-74
2023/03/03 04:50:00;;;;;;;83.18;36.00;;;-0.30;99.90;;;;;;2087186;28;20020;-75
2023/03/03 04:51:03;;;;;;;76.07;35.28;;;-0.30;99.90;;;;;;2088481;28;20052;-75
2023/03/03 04:52:05;;;;;;;78.13;35.05;;;-0.30;99.90;;;;;;2079315;28;20048;-75
2023/03/03 04:53:05;;;;;;;76.88;35.50;;;-0.30;99.90;;;;;;2085307;28;20021;-76
2023/03/03 04:54:06;;;;;;;81.70;36.10;;;-0.30;99.90;;;;;;2085448;28;20036;-76
2023/03/03 04:55:08;;;;;;;76.97;34.92;;;-0.30;99.90;;;;;;2089686;28;20029;-76
2023/03/03 04:56:09;;;;;;;81.30;35.58;;;-0.30;99.90;;;;;;2091751;28;20044;-77
2023/03/03 04:57:10;;;;;;;80.22;36.40;;;-0.30;99.90;;;;;;2092236;28;20387;-76
2023/03/03 04:58:11;;;;;;;79.32;35.22;;;-0.30;99.90;;;;;;2091670;28;20016;-76
2023/03/03 04:59:13;;;;;;;78.32;35.03;;;-0.30;99.90;;;;;;2078726;28;20013;-76
2023/03/03 05:00:14;;;;;;;78.80;34.88;;;-0.30;99.90;;;;;;2071984;28;20495;-76
2023/03/03 05:01:15;;;;;;;78.40;34.63;;;-0.30;99.90;;;;;;2070890;28;20029;-76
2023/03/03 05:02:16;;;;;;;78.15;34.20;;;-0.30;99.90;;;;;;2073985;28;20045;-76
2023/03/03 05:03:17;;;;;;;78.35;34.20;;;-0.30;99.90;;;;;;2077709;28;20053;-76
2023/03/03 05:04:17;;;;;;;77.07;33.72;;;-0.20;99.90;;;;;;2077506;28;20519;-75
2023/03/03 05:05:18;;;;;;;75.07;33.13;;;-0.30;99.90;;;;;;2077813;28;20036;-75
2023/03/03 05:06:18;;;;;;;81.30;35.33;;;-0.30;99.90;;;;;;2085023;28;20506;-74
2023/03/03 05:07:19;;;;;;;77.75;34.15;;;-0.20;99.90;;;;;;2078990;28;20589;-75
2023/03/03 05:08:20;;;;;;;81.20;34.38;;;-0.30;99.90;;;;;;2086645;28;20434;-75
2023/03/03 05:09:20;;;;;;;91.93;37.03;;;-0.20;99.90;;;;;;2090921;28;20047;-76
2023/03/03 05:10:21;;;;;;;85.82;36.63;;;-0.20;99.90;;;;;;2075620;28;20033;-76
2023/03/03 05:11:21;;;;;;;82.32;35.13;;;-0.20;99.90;;;;;;2080104;28;20032;-75
2023/03/03 05:12:22;;;;;;;91.60;37.60;;;-0.20;99.90;;;;;;2078097;28;20029;-75
2023/03/03 05:13:22;;;;;;;82.30;35.30;;;-0.20;99.90;;;;;;2078023;28;20037;-76
2023/03/03 05:14:23;;;;;;;88.20;35.72;;;-0.20;99.90;;;;;;2077872;28;20460;-75
2023/03/03 05:15:24;;;;;;;86.32;35.30;;;-0.20;99.90;;;;;;2079428;28;20160;-75
2023/03/03 05:16:24;;;;;;;81.13;35.33;;;-0.20;99.90;;;;;;2076978;28;20033;-75
2023/03/03 05:17:25;;;;;;;78.88;33.30;;;-0.20;99.90;;;;;;2079505;28;20168;-75
2023/03/03 05:18:26;;;;;;;77.85;32.55;;;-0.20;99.90;;;;;;2078807;28;20028;-75
2023/03/03 05:19:27;;;;;;;83.25;34.03;;;-0.20;99.90;;;;;;2092549;28;20137;-76